메인 페이지
METAR-TAF:

METAR-TAF

공항 :

Altus Air Force Base

Altus, 오클라호마, 미국

위도: 34-39N, 경도: 099-16W, 고도: 420m

현재 날씨관측

예보는 57분 전, 00:56시(UTC)에 발표되었습니다.
6kt
온도 1°C
습도 44%
기압 1029 hPa
시정: 16.1km
맑음

METAR: KLTS 270056Z AUTO 35006KT 10SM CLR 01/M10 A3040 RMK AO2 SLP306 T00091103 $

시각: 19:53 (01:53 UTC)

예보

예보는 53분 전, 01:00시(UTC)에 발표되었습니다.
예보 대상 시간: 27일 01시부터 28일 07시까지 (UTC)
북북동4kt
시정 10km 이상
맑음
전환 중
27일 05시부터 27일 06시까지 (UTC)
5kt
시정 10km 이상
맑음
전환 중
27일 12시부터 27일 13시까지 (UTC)
남남서12kt
시정 10km 이상
맑음
전환 중
27일 16시부터 27일 17시까지 (UTC)
남서12kt, 순간 최대 풍속 18kt
시정 10km 이상
맑음
전환 중
27일 23시부터 27일 24시까지 (UTC)
6kt
시정 10km 이상
맑음

TAF: KLTS 270100Z 2701/2807 02004KT 9999 SKC QNH3039INS BECMG 2705/2706 17005KT 9999 SKC QNH3030INS BECMG 2712/2713 21012KT 9999 SKC QNH3026INS BECMG 2716/2717 23012G18KT 9999 SKC QNH3019INS BECMG 2723/2724 35006KT 9999 SKC QNH3021INS TX15/2722Z TNM02/2712Z

4,000개 이상의 공항 관측 자료 및 예보 (METAR 및 TAF 보고).

지도상에서 검색 가능한 기상관측소가 노란 점과 빨간 점으로 표시되어 있습니다.

기상관측소 명을 보려면 표시 위로 마우스를 이동하세요.

날씨 관측과 예보를 보려면 클릭하세요.

지도 변경 : 확대하려면 엑스 표시가 있는 녹색 버튼, 축소하려면 빼기 표시가 있는 녹색 버튼, 다음 페이지의 지도를 보려면 녹색 화살표를 클릭하세요.


METAR-TAF: